Time;durP1;ratioP1;P1;durP2;ratioP2;P2;SDS_P1;SDS_P2;PMS_P1;PMS_P2;Temp;Humidity;BMP_temperature;BMP_pressure;BME280_temperature;BME280_humidity;BME280_pressure;Samples;Min_cycle;Max_cycle;Signal;HPM_P1;HPM_P2
2021/09/08 00:02:10;;;;;;;50.22;30.80;;;16.50;99.90;;;;;;5065758;28;20021;-64
2021/09/08 00:04:36;;;;;;;43.83;29.27;;;16.50;99.90;;;;;;5070309;28;20424;-64
2021/09/08 00:07:02;;;;;;;52.75;31.60;;;16.40;99.90;;;;;;5069908;28;20032;-64
2021/09/08 00:09:28;;;;;;;51.40;31.63;;;16.40;99.90;;;;;;5069578;28;20335;-64
2021/09/08 00:11:53;;;;;;;49.40;30.92;;;16.40;99.90;;;;;;5067342;28;20035;-64
2021/09/08 00:14:19;;;;;;;47.88;32.58;;;16.40;99.90;;;;;;5068639;28;20175;-62
2021/09/08 00:16:45;;;;;;;52.97;32.15;;;16.40;99.90;;;;;;5067884;28;20052;-62
2021/09/08 00:19:11;;;;;;;50.92;31.42;;;16.40;99.90;;;;;;5072120;28;20024;-64
2021/09/08 00:21:37;;;;;;;48.35;32.63;;;16.40;99.90;;;;;;5065107;28;20361;-62
2021/09/08 00:24:03;;;;;;;52.05;31.58;;;16.40;99.90;;;;;;5067271;28;20032;-62
2021/09/08 00:26:29;;;;;;;49.58;31.67;;;16.30;99.90;;;;;;5063474;28;20090;-62
2021/09/08 00:28:55;;;;;;;51.13;31.65;;;16.30;99.90;;;;;;5063282;28;20217;-62
2021/09/08 00:31:21;;;;;;;56.05;33.20;;;16.40;99.90;;;;;;5067648;28;20036;-62
2021/09/08 00:33:46;;;;;;;54.72;32.72;;;16.30;99.90;;;;;;5070700;28;20040;-62
2021/09/08 00:36:12;;;;;;;56.38;33.53;;;16.40;99.90;;;;;;5064545;28;20052;-62
2021/09/08 00:38:38;;;;;;;56.72;34.10;;;16.30;99.90;;;;;;5068166;28;20042;-62
2021/09/08 00:41:04;;;;;;;52.88;33.15;;;16.30;99.90;;;;;;5069249;28;20057;-62
2021/09/08 00:43:29;;;;;;;53.97;35.58;;;16.30;99.90;;;;;;5069153;28;20040;-62
2021/09/08 00:45:56;;;;;;;55.63;35.80;;;16.20;99.90;;;;;;5067265;28;20223;-63
2021/09/08 00:48:23;;;;;;;54.97;35.88;;;16.30;99.90;;;;;;5066585;28;20024;-62
2021/09/08 00:50:49;;;;;;;59.35;36.33;;;16.30;99.90;;;;;;5068573;28;20127;-62
2021/09/08 00:53:20;;;;;;;53.42;33.95;;;16.30;99.90;;;;;;5067387;28;20028;-63
2021/09/08 00:55:48;;;;;;;54.08;33.75;;;16.30;99.90;;;;;;5068724;28;20032;-62
2021/09/08 00:58:14;;;;;;;56.15;34.08;;;16.40;99.90;;;;;;5070853;28;20025;-63
2021/09/08 01:00:41;;;;;;;52.22;34.05;;;16.40;99.90;;;;;;5073375;28;20048;-62
2021/09/08 01:03:07;;;;;;;53.25;32.40;;;16.40;99.90;;;;;;5071865;28;20028;-62
2021/09/08 01:05:33;;;;;;;54.28;33.90;;;16.40;99.90;;;;;;5072298;28;20045;-62
2021/09/08 01:07:59;;;;;;;62.72;36.38;;;16.30;99.90;;;;;;5073398;28;20035;-63
2021/09/08 01:10:27;;;;;;;57.03;34.10;;;16.20;99.90;;;;;;5074170;28;20033;-62
2021/09/08 01:12:53;;;;;;;54.85;34.40;;;16.30;99.90;;;;;;5070520;28;20033;-62
2021/09/08 01:15:19;;;;;;;61.25;34.53;;;16.40;99.90;;;;;;5070172;28;20027;-62
2021/09/08 01:17:45;;;;;;;57.25;34.83;;;16.40;99.90;;;;;;5074763;28;20032;-63
2021/09/08 01:20:13;;;;;;;54.38;33.97;;;16.40;99.90;;;;;;5072230;28;20024;-63
2021/09/08 01:22:57;;;;;;;55.20;36.90;;;16.40;99.90;;;;;;5074032;28;20035;-62
2021/09/08 01:25:25;;;;;;;58.80;36.47;;;16.30;99.90;;;;;;5069092;28;20113;-63
2021/09/08 01:27:54;;;;;;;61.13;37.25;;;16.30;99.90;;;;;;5071754;28;20209;-63
2021/09/08 01:30:22;;;;;;;64.80;36.90;;;16.40;99.90;;;;;;5073412;28;20028;-62
2021/09/08 01:32:49;;;;;;;57.50;35.35;;;16.40;99.90;;;;;;5072997;28;20282;-63
2021/09/08 01:35:17;;;;;;;63.55;38.47;;;16.30;99.90;;;;;;5071066;28;20035;-62
2021/09/08 01:37:44;;;;;;;61.00;37.15;;;16.40;99.90;;;;;;5070419;28;20024;-62
2021/09/08 01:40:10;;;;;;;63.25;38.92;;;16.40;99.90;;;;;;5065601;28;20033;-63
2021/09/08 01:42:36;;;;;;;65.70;41.00;;;16.40;99.90;;;;;;5069447;28;20387;-62
2021/09/08 01:45:02;;;;;;;64.80;38.30;;;16.40;99.90;;;;;;5072727;28;20254;-62
2021/09/08 01:47:28;;;;;;;63.15;39.47;;;16.40;99.90;;;;;;5072450;28;20166;-63
2021/09/08 01:49:54;;;;;;;63.10;39.13;;;16.50;99.90;;;;;;5071677;28;20122;-62
2021/09/08 01:52:20;;;;;;;74.80;41.28;;;16.50;99.90;;;;;;5071243;28;20102;-62
2021/09/08 01:54:46;;;;;;;68.85;42.33;;;16.50;99.90;;;;;;5065952;28;20028;-63
2021/09/08 01:57:12;;;;;;;74.22;43.67;;;16.40;99.90;;;;;;5071068;28;20108;-63
2021/09/08 01:59:37;;;;;;;66.18;40.90;;;16.40;99.90;;;;;;5072543;28;20051;-62
2021/09/08 02:02:03;;;;;;;61.70;39.00;;;16.40;99.90;;;;;;5068943;28;20323;-62
2021/09/08 02:04:29;;;;;;;65.82;38.35;;;16.30;99.90;;;;;;5073286;28;20079;-63
2021/09/08 02:06:55;;;;;;;66.55;41.38;;;16.30;99.90;;;;;;5071858;28;20096;-63
2021/09/08 02:09:21;;;;;;;74.80;43.95;;;16.30;99.90;;;;;;5071128;28;20029;-62
2021/09/08 02:11:47;;;;;;;79.85;44.42;;;16.40;99.90;;;;;;5069482;28;20033;-63
2021/09/08 02:14:14;;;;;;;71.03;43.45;;;16.40;99.90;;;;;;5071950;28;20354;-62
2021/09/08 02:16:40;;;;;;;75.35;45.25;;;16.40;99.90;;;;;;5070111;28;20051;-62
2021/09/08 02:19:06;;;;;;;69.85;40.88;;;16.40;99.90;;;;;;5072009;28;20116;-63
2021/09/08 02:21:32;;;;;;;62.25;36.03;;;16.40;99.90;;;;;;5067646;28;20029;-62
2021/09/08 02:23:58;;;;;;;76.30;43.58;;;16.40;99.90;;;;;;5069469;28;20024;-62
2021/09/08 02:26:24;;;;;;;81.85;47.47;;;16.50;99.90;;;;;;5053406;28;20482;-63
2021/09/08 02:28:50;;;;;;;79.53;46.05;;;16.50;99.90;;;;;;5070590;28;20020;-62
2021/09/08 02:31:15;;;;;;;70.97;41.38;;;16.60;99.90;;;;;;5070646;28;20039;-63
2021/09/08 02:33:41;;;;;;;74.28;43.55;;;16.60;99.90;;;;;;5070445;28;20221;-63
2021/09/08 02:36:08;;;;;;;68.43;40.90;;;16.60;99.90;;;;;;5070431;28;20032;-63
2021/09/08 02:38:34;;;;;;;70.45;43.25;;;16.60;99.90;;;;;;5070809;28;20427;-63
2021/09/08 02:41:11;;;;;;;79.85;46.97;;;16.70;99.90;;;;;;5072702;28;20044;-63
2021/09/08 02:43:37;;;;;;;72.97;44.22;;;16.70;99.90;;;;;;5068513;28;20143;-62
2021/09/08 02:46:04;;;;;;;79.78;47.22;;;16.70;99.90;;;;;;5068096;28;20478;-62
2021/09/08 02:48:31;;;;;;;84.72;48.90;;;16.80;99.90;;;;;;5071028;28;20028;-63
2021/09/08 02:50:58;;;;;;;82.68;48.35;;;16.90;99.90;;;;;;5071846;28;20327;-63
2021/09/08 02:53:24;;;;;;;90.10;50.83;;;16.80;99.90;;;;;;5071383;28;20036;-63
2021/09/08 02:55:50;;;;;;;78.57;46.55;;;16.80;99.90;;;;;;5070687;28;20208;-63
2021/09/08 02:58:16;;;;;;;65.75;39.13;;;16.80;99.90;;;;;;5070492;28;20035;-63
2021/09/08 03:00:42;;;;;;;57.53;36.75;;;16.80;99.90;;;;;;5069458;28;20596;-63
2021/09/08 03:03:08;;;;;;;75.78;41.97;;;16.90;99.90;;;;;;5070661;28;20040;-62
2021/09/08 03:05:34;;;;;;;80.75;47.45;;;16.90;99.90;;;;;;5069794;28;20041;-63
2021/09/08 03:08:00;;;;;;;84.70;48.17;;;16.90;99.90;;;;;;5070372;28;20077;-62
2021/09/08 03:10:26;;;;;;;87.22;50.35;;;16.90;99.90;;;;;;5068795;28;20315;-63
2021/09/08 03:12:52;;;;;;;74.00;41.95;;;17.00;99.90;;;;;;5068679;28;20052;-63
2021/09/08 03:15:20;;;;;;;90.68;50.20;;;17.00;99.90;;;;;;5068574;28;20078;-63
2021/09/08 03:17:46;;;;;;;82.10;49.20;;;17.00;99.90;;;;;;5070473;28;20032;-63
2021/09/08 03:20:12;;;;;;;91.57;50.63;;;17.00;99.90;;;;;;5068395;28;20346;-62
2021/09/08 03:22:38;;;;;;;92.78;55.85;;;17.10;99.90;;;;;;5070411;28;20112;-62
2021/09/08 03:25:05;;;;;;;88.47;51.10;;;17.10;99.90;;;;;;5070599;28;20320;-63
2021/09/08 03:27:31;;;;;;;103.10;60.08;;;17.10;99.90;;;;;;5066744;28;20338;-63
2021/09/08 03:29:57;;;;;;;83.15;49.58;;;17.10;99.90;;;;;;5069301;28;20079;-62
2021/09/08 03:32:23;;;;;;;108.75;63.58;;;17.10;99.90;;;;;;5067639;28;20115;-63
2021/09/08 03:34:49;;;;;;;110.07;64.78;;;17.10;99.90;;;;;;5069351;28;20024;-63
2021/09/08 03:37:15;;;;;;;111.45;65.40;;;17.20;99.90;;;;;;5066784;28;20118;-62
2021/09/08 03:39:40;;;;;;;120.18;66.32;;;17.20;99.90;;;;;;5066219;28;20199;-63
2021/09/08 03:42:06;;;;;;;104.95;65.45;;;17.20;99.90;;;;;;5062690;28;20060;-63
2021/09/08 03:44:32;;;;;;;105.00;65.85;;;17.20;99.90;;;;;;5066883;28;20044;-63
2021/09/08 03:46:58;;;;;;;116.90;70.40;;;17.20;99.90;;;;;;5063622;28;20056;-62
2021/09/08 03:49:24;;;;;;;109.32;65.53;;;17.20;99.90;;;;;;5070743;28;20196;-63
2021/09/08 03:51:50;;;;;;;116.90;71.35;;;17.10;99.90;;;;;;5069745;28;20028;-63
2021/09/08 03:54:16;;;;;;;123.47;74.82;;;17.20;99.90;;;;;;5065994;28;20028;-63
2021/09/08 03:56:42;;;;;;;113.07;70.45;;;17.20;99.90;;;;;;5064689;28;20028;-63
2021/09/08 03:59:09;;;;;;;113.57;71.10;;;17.20;99.90;;;;;;5064391;28;20029;-62
2021/09/08 04:01:34;;;;;;;116.70;73.35;;;17.20;99.90;;;;;;5065839;28;20033;-63
2021/09/08 04:04:00;;;;;;;113.47;70.05;;;17.20;99.90;;;;;;5065172;28;20243;-62
2021/09/08 04:06:26;;;;;;;119.82;74.50;;;17.20;99.90;;;;;;5065802;28;20513;-63
2021/09/08 04:08:52;;;;;;;125.85;77.10;;;17.20;99.90;;;;;;5062116;28;20036;-62
2021/09/08 04:11:18;;;;;;;128.32;78.15;;;17.20;99.90;;;;;;5067738;28;20341;-63
2021/09/08 04:13:43;;;;;;;119.72;76.47;;;17.20;99.90;;;;;;5061277;28;20297;-73
2021/09/08 04:16:09;;;;;;;127.95;77.80;;;17.20;99.90;;;;;;5063398;28;20067;-73
2021/09/08 04:18:35;;;;;;;123.97;75.28;;;17.30;99.90;;;;;;5059488;28;20035;-68
2021/09/08 04:21:01;;;;;;;124.13;77.35;;;17.30;99.90;;;;;;5063506;28;20062;-68
2021/09/08 04:23:27;;;;;;;117.05;76.00;;;17.30;99.90;;;;;;5067263;28;20029;-69
2021/09/08 04:25:53;;;;;;;119.00;76.53;;;17.20;99.90;;;;;;5065098;28;20051;-68
2021/09/08 04:28:19;;;;;;;111.95;74.38;;;17.20;99.90;;;;;;5067240;28;20095;-68
2021/09/08 04:30:44;;;;;;;117.25;75.25;;;17.10;99.90;;;;;;5068409;28;20028;-68
2021/09/08 04:33:10;;;;;;;114.63;72.75;;;17.10;99.90;;;;;;5062494;28;20047;-68
2021/09/08 04:35:36;;;;;;;107.88;67.57;;;17.10;99.90;;;;;;5062046;28;20028;-69
2021/09/08 04:38:02;;;;;;;124.20;81.78;;;17.10;99.90;;;;;;5065486;28;20028;-69
2021/09/08 04:40:28;;;;;;;117.47;76.90;;;17.10;99.90;;;;;;5067319;28;20024;-68
2021/09/08 04:42:54;;;;;;;112.97;75.40;;;17.10;99.90;;;;;;5062626;28;20441;-69
2021/09/08 04:45:19;;;;;;;109.40;74.53;;;17.10;99.90;;;;;;5068301;28;20048;-68
2021/09/08 04:47:45;;;;;;;104.18;71.13;;;17.10;99.90;;;;;;5069226;28;20029;-68
2021/09/08 04:50:11;;;;;;;115.90;77.43;;;17.10;99.90;;;;;;5063966;28;20040;-68
2021/09/08 04:52:37;;;;;;;119.95;80.43;;;17.10;99.90;;;;;;5057240;28;20104;-68
2021/09/08 04:55:03;;;;;;;122.03;80.22;;;17.10;99.90;;;;;;5062207;28;20032;-69
2021/09/08 04:57:29;;;;;;;123.75;79.30;;;17.10;99.90;;;;;;5064981;28;20357;-68
2021/09/08 04:59:55;;;;;;;119.57;78.97;;;17.00;99.90;;;;;;5066929;28;20037;-69
2021/09/08 05:02:21;;;;;;;119.88;78.88;;;17.00;99.90;;;;;;5069861;28;20249;-70
2021/09/08 05:04:47;;;;;;;117.50;78.68;;;17.00;99.90;;;;;;5069152;28;20032;-70
2021/09/08 05:07:13;;;;;;;119.78;77.47;;;17.00;99.90;;;;;;5070691;28;20032;-70
2021/09/08 05:09:39;;;;;;;112.65;74.97;;;17.00;99.90;;;;;;5071242;28;20032;-67
2021/09/08 05:12:05;;;;;;;116.00;76.57;;;17.00;99.90;;;;;;5070256;28;20321;-68
2021/09/08 05:14:30;;;;;;;116.55;74.38;;;17.10;99.90;;;;;;5068246;28;20089;-68
2021/09/08 05:16:56;;;;;;;105.30;70.75;;;17.10;99.90;;;;;;5066894;28;20380;-68
2021/09/08 05:19:22;;;;;;;112.32;73.30;;;17.10;99.90;;;;;;5070826;28;20028;-68
2021/09/08 05:21:48;;;;;;;112.40;76.60;;;17.10;99.90;;;;;;5071696;28;20104;-68
2021/09/08 05:24:14;;;;;;;115.03;75.63;;;17.10;99.90;;;;;;5069578;28;20043;-69
2021/09/08 05:26:40;;;;;;;113.45;75.32;;;17.10;99.90;;;;;;5068007;28;20421;-69
2021/09/08 05:29:06;;;;;;;113.97;75.25;;;17.10;99.90;;;;;;5071739;28;20028;-68
2021/09/08 05:31:32;;;;;;;116.38;76.75;;;17.10;99.90;;;;;;5070085;28;20050;-71
2021/09/08 05:33:58;;;;;;;118.45;72.75;;;17.20;99.90;;;;;;5069142;28;20374;-70
2021/09/08 05:36:24;;;;;;;110.28;74.28;;;17.20;99.90;;;;;;5071557;28;20123;-68
2021/09/08 05:38:50;;;;;;;101.85;67.45;;;17.20;99.90;;;;;;5070203;28;20365;-68
2021/09/08 05:41:16;;;;;;;117.18;76.18;;;17.10;99.90;;;;;;5069800;28;20062;-68
2021/09/08 05:43:42;;;;;;;112.30;74.68;;;17.10;99.90;;;;;;5068606;28;20132;-68
2021/09/08 05:46:08;;;;;;;111.07;73.00;;;17.10;99.90;;;;;;5073716;28;20032;-68
2021/09/08 05:48:34;;;;;;;112.63;73.40;;;17.10;99.90;;;;;;5075025;28;20028;-68
2021/09/08 05:51:01;;;;;;;103.60;68.72;;;17.10;99.90;;;;;;5074604;28;20204;-68
2021/09/08 05:53:27;;;;;;;110.20;71.45;;;17.10;99.90;;;;;;5073676;28;20091;-68
2021/09/08 05:55:55;;;;;;;101.95;68.15;;;17.20;99.90;;;;;;5073216;28;20081;-68
2021/09/08 05:58:21;;;;;;;105.30;69.85;;;17.20;99.90;;;;;;5074017;28;20107;-68
2021/09/08 06:00:46;;;;;;;90.97;62.20;;;17.20;99.90;;;;;;5074550;28;20028;-69
2021/09/08 06:03:12;;;;;;;101.63;69.45;;;17.20;99.90;;;;;;5074949;28;20052;-68
2021/09/08 06:05:38;;;;;;;94.85;64.07;;;17.30;99.90;;;;;;5073379;28;20040;-69
2021/09/08 06:08:04;;;;;;;96.40;64.55;;;17.40;99.90;;;;;;5071312;28;20021;-68
2021/09/08 06:10:30;;;;;;;95.10;63.28;;;17.50;99.90;;;;;;5072425;28;20192;-68
2021/09/08 06:12:56;;;;;;;91.78;61.25;;;17.50;99.90;;;;;;5074067;28;20034;-68
2021/09/08 06:15:21;;;;;;;92.20;60.33;;;17.60;99.90;;;;;;5064889;28;20020;-68
2021/09/08 06:17:48;;;;;;;90.55;59.60;;;17.70;99.90;;;;;;5074680;28;20031;-68
2021/09/08 06:20:14;;;;;;;85.80;60.38;;;17.80;99.90;;;;;;5073226;28;20055;-68
2021/09/08 06:22:41;;;;;;;89.05;59.25;;;17.80;99.90;;;;;;5073839;28;20385;-68
2021/09/08 06:25:08;;;;;;;86.03;58.35;;;17.90;99.90;;;;;;5071652;28;20033;-68
2021/09/08 06:27:33;;;;;;;87.82;59.00;;;18.00;99.90;;;;;;5073911;28;20025;-68
2021/09/08 06:29:59;;;;;;;83.53;55.42;;;18.00;99.90;;;;;;5072809;28;20309;-69
2021/09/08 06:32:25;;;;;;;83.93;57.72;;;18.10;99.90;;;;;;5064326;28;20695;-69
2021/09/08 06:34:51;;;;;;;87.97;58.00;;;18.40;99.90;;;;;;5071485;28;20031;-69
2021/09/08 06:37:17;;;;;;;82.40;56.15;;;18.40;99.90;;;;;;5072899;28;20358;-69
2021/09/08 06:39:43;;;;;;;83.80;58.08;;;18.60;99.90;;;;;;5072121;28;20036;-68
2021/09/08 06:42:09;;;;;;;83.47;58.05;;;18.80;99.90;;;;;;5072510;28;20401;-69
2021/09/08 06:44:35;;;;;;;86.05;58.72;;;18.90;99.90;;;;;;5073277;28;20036;-69
2021/09/08 06:47:01;;;;;;;84.32;59.75;;;19.00;99.90;;;;;;5069583;28;20035;-68
2021/09/08 06:49:27;;;;;;;87.07;61.65;;;19.00;99.90;;;;;;5072315;28;20198;-69
2021/09/08 06:51:53;;;;;;;81.25;58.45;;;19.20;99.90;;;;;;5072574;28;20025;-69
2021/09/08 06:54:19;;;;;;;80.30;57.25;;;19.40;99.90;;;;;;5072109;28;20118;-69
2021/09/08 06:56:45;;;;;;;78.97;54.90;;;19.50;99.90;;;;;;5073197;28;20028;-69
2021/09/08 06:59:11;;;;;;;78.55;58.42;;;19.50;99.90;;;;;;5072417;28;20057;-68
2021/09/08 07:01:37;;;;;;;78.20;54.97;;;19.70;99.90;;;;;;5071517;28;20216;-68
2021/09/08 07:04:03;;;;;;;69.85;52.05;;;19.90;99.90;;;;;;5073227;28;20092;-69
2021/09/08 07:06:28;;;;;;;74.00;53.90;;;20.10;99.90;;;;;;5073240;28;20029;-72
2021/09/08 07:08:54;;;;;;;77.63;54.38;;;20.30;99.90;;;;;;5073470;28;20020;-71
2021/09/08 07:11:21;;;;;;;80.47;55.65;;;20.50;99.90;;;;;;5071209;28;20100;-71
2021/09/08 07:13:49;;;;;;;75.43;55.33;;;20.60;99.90;;;;;;5071480;28;20035;-71
2021/09/08 07:16:15;;;;;;;71.65;52.92;;;20.70;99.90;;;;;;5069917;28;20027;-71
2021/09/08 07:18:40;;;;;;;69.43;50.95;;;20.80;99.90;;;;;;5070810;28;20245;-72
2021/09/08 07:21:07;;;;;;;70.97;52.92;;;20.90;99.90;;;;;;5072821;28;20036;-69
2021/09/08 07:23:33;;;;;;;70.82;50.78;;;20.80;99.90;;;;;;5072285;28;20039;-69
2021/09/08 07:25:59;;;;;;;72.43;51.33;;;20.70;99.90;;;;;;5072200;28;20096;-68
2021/09/08 07:28:25;;;;;;;69.45;49.60;;;20.60;99.90;;;;;;5072736;28;20051;-68
2021/09/08 07:30:55;;;;;;;68.32;48.83;;;20.60;99.90;;;;;;5073010;28;20119;-68
2021/09/08 07:33:21;;;;;;;;;;;20.70;99.90;;;;;;5071347;28;20024;-69
2021/09/08 07:35:48;;;;;;;71.85;49.30;;;21.10;99.90;;;;;;5071284;28;20144;-69
2021/09/08 07:38:20;;;;;;;67.20;46.95;;;21.40;99.90;;;;;;5072491;28;20024;-69
2021/09/08 07:40:47;;;;;;;63.30;46.03;;;21.50;99.90;;;;;;5072317;28;20060;-69
2021/09/08 07:43:12;;;;;;;64.78;47.58;;;21.80;99.90;;;;;;5068253;28;20043;-69
2021/09/08 07:45:39;;;;;;;64.70;46.42;;;21.90;99.90;;;;;;5070428;28;20235;-69
2021/09/08 07:48:05;;;;;;;60.90;43.50;;;22.10;99.90;;;;;;5071272;28;20036;-68
2021/09/08 07:50:32;;;;;;;65.35;45.83;;;22.10;99.90;;;;;;5071052;28;20039;-69
2021/09/08 07:52:57;;;;;;;62.88;42.25;;;22.20;99.90;;;;;;5071902;28;20024;-69
2021/09/08 07:55:24;;;;;;;57.60;41.03;;;22.40;99.90;;;;;;5070611;28;20242;-69
2021/09/08 07:57:49;;;;;;;61.08;42.55;;;22.60;99.90;;;;;;5072004;28;20032;-69
2021/09/08 08:00:16;;;;;;;61.20;43.40;;;22.50;99.90;;;;;;5072542;28;20246;-68
2021/09/08 08:02:46;;;;;;;55.78;41.17;;;22.70;99.90;;;;;;5072157;28;20058;-69
2021/09/08 08:05:14;;;;;;;59.70;39.80;;;22.90;99.90;;;;;;5070867;28;20040;-69
2021/09/08 08:07:40;;;;;;;53.20;39.53;;;23.10;99.90;;;;;;5070967;28;20031;-68
2021/09/08 08:10:07;;;;;;;47.28;34.03;;;23.10;99.90;;;;;;5071715;28;20032;-68
2021/09/08 08:12:33;;;;;;;52.38;36.60;;;23.50;99.90;;;;;;5071583;28;20036;-69
2021/09/08 08:14:59;;;;;;;51.15;37.00;;;23.90;99.90;;;;;;5070750;28;20039;-69
2021/09/08 08:17:24;;;;;;;51.67;36.58;;;23.90;99.90;;;;;;5071325;28;20024;-69
2021/09/08 08:19:51;;;;;;;52.83;36.58;;;23.90;99.90;;;;;;5069312;28;20025;-69
2021/09/08 08:22:17;;;;;;;51.03;37.08;;;24.20;99.90;;;;;;5070074;28;20093;-72
2021/09/08 08:24:43;;;;;;;48.53;35.95;;;24.50;99.90;;;;;;5070678;28;20221;-71
2021/09/08 08:27:09;;;;;;;48.35;35.78;;;24.60;99.90;;;;;;5072091;28;20342;-71
2021/09/08 08:29:35;;;;;;;51.40;37.78;;;24.60;99.90;;;;;;5072372;28;20250;-71
2021/09/08 08:32:02;;;;;;;58.85;37.97;;;24.80;99.90;;;;;;5071729;28;20079;-72
2021/09/08 08:34:27;;;;;;;42.17;32.08;;;24.80;99.90;;;;;;5071755;28;20027;-72
2021/09/08 08:36:53;;;;;;;48.75;34.83;;;25.40;99.90;;;;;;5068988;28;20043;-71
2021/09/08 08:39:20;;;;;;;55.03;37.78;;;25.70;99.90;;;;;;5071199;28;20353;-71
2021/09/08 08:41:46;;;;;;;51.00;37.53;;;26.10;99.90;;;;;;5069460;28;20145;-71
2021/09/08 08:44:12;;;;;;;54.28;37.35;;;26.00;99.90;;;;;;5070408;28;20028;-71
2021/09/08 08:46:38;;;;;;;49.58;37.13;;;25.70;99.90;;;;;;5070763;28;20095;-71
2021/09/08 08:49:04;;;;;;;50.53;37.92;;;25.80;99.90;;;;;;5071811;28;20020;-72
2021/09/08 08:51:31;;;;;;;50.65;37.45;;;26.10;99.90;;;;;;5069809;28;20306;-71
2021/09/08 08:53:57;;;;;;;44.00;34.55;;;26.30;99.90;;;;;;5071140;28;20343;-71
2021/09/08 08:56:24;;;;;;;46.95;34.03;;;26.70;99.90;;;;;;5071116;28;20077;-72
2021/09/08 08:58:53;;;;;;;46.40;34.00;;;27.10;99.90;;;;;;5070543;28;20025;-72
2021/09/08 09:01:25;;;;;;;43.42;32.63;;;27.40;99.90;;;;;;5069526;28;20067;-72
2021/09/08 09:04:11;;;;;;;46.17;33.67;;;27.70;99.70;;;;;;5072105;28;20043;-72
2021/09/08 09:06:41;;;;;;;44.28;34.35;;;27.40;99.90;;;;;;5069704;28;20060;-72
2021/09/08 09:09:08;;;;;;;;;;;27.40;99.50;;;;;;5072432;28;20286;-72
2021/09/08 09:11:35;;;;;;;;;;;27.30;99.70;;;;;;5062310;28;19955;-72
2021/09/08 09:14:02;;;;;;;;;;;27.50;99.90;;;;;;5072044;28;20165;-72
2021/09/08 09:16:28;;;;;;;;;;;27.90;98.80;;;;;;5068719;28;19943;-72
2021/09/08 09:18:54;;;;;;;;;;;28.00;98.70;;;;;;5074632;28;19912;-72
2021/09/08 09:21:21;;;;;;;;;;;27.80;99.30;;;;;;5074873;28;19916;-71
2021/09/08 09:23:50;;;;;;;;;;;27.70;99.30;;;;;;5074788;28;19912;-71
2021/09/08 09:26:35;;;;;;;;;;;27.90;99.00;;;;;;5075380;28;19917;-72
2021/09/08 09:29:09;;;;;;;;;;;28.00;97.60;;;;;;5075983;28;19912;-72
2021/09/08 09:31:48;;;;;;;;;;;27.50;97.60;;;;;;5074474;28;20213;-71
2021/09/08 09:34:14;;;;;;;;;;;27.50;97.90;;;;;;5075470;28;19908;-71
2021/09/08 09:36:39;;;;;;;;;;;27.30;98.60;;;;;;5074143;28;20122;-72
2021/09/08 09:39:05;;;;;;;;;;;27.00;97.70;;;;;;5073813;28;19919;-71
2021/09/08 09:41:32;;;;;;;;;;;26.80;98.00;;;;;;5074657;28;19959;-71
2021/09/08 09:44:14;;;;;;;;;;;27.00;98.40;;;;;;5072365;28;20174;-71
2021/09/08 09:46:41;;;;;;;;;;;27.20;97.80;;;;;;5075248;28;19954;-72
2021/09/08 09:49:06;;;;;;;;;;;27.70;97.70;;;;;;5088744;28;19915;-72
2021/09/08 09:51:32;;;;;;;;;;;27.80;97.60;;;;;;5075112;28;19912;-71
2021/09/08 09:53:58;;;;;;;;;;;27.90;97.50;;;;;;5075652;28;20272;-71
2021/09/08 09:56:24;;;;;;;;;;;27.50;97.30;;;;;;5073338;28;19908;-72
2021/09/08 09:58:49;;;;;;;;;;;27.20;97.60;;;;;;5075387;28;19958;-72
2021/09/08 10:01:16;;;;;;;;;;;27.40;98.00;;;;;;5073944;28;20195;-72
2021/09/08 10:03:43;;;;;;;;;;;27.50;97.50;;;;;;5074830;28;20210;-71
2021/09/08 10:06:09;;;;;;;;;;;27.70;97.50;;;;;;5074894;28;20115;-72
2021/09/08 10:08:39;;;;;;;;;;;28.20;97.70;;;;;;5071748;28;20196;-72
2021/09/08 10:11:05;;;;;;;;;;;28.20;96.60;;;;;;5072141;28;20183;-72
2021/09/08 10:13:42;;;;;;;;;;;28.50;96.60;;;;;;5074196;28;19940;-72
2021/09/08 10:16:09;;;;;;;;;;;28.60;96.80;;;;;;5074849;28;19908;-72
2021/09/08 10:18:35;;;;;;;;;;;28.60;97.80;;;;;;5074753;28;20422;-71
2021/09/08 10:21:02;;;;;;;;;;;28.90;96.50;;;;;;5073297;28;19930;-73
2021/09/08 10:23:31;;;;;;;;;;;29.00;95.90;;;;;;5072381;28;19913;-72
2021/09/08 10:25:57;;;;;;;;;;;28.20;97.10;;;;;;5074797;28;19916;-72
2021/09/08 10:28:25;;;;;;;;;;;27.70;97.30;;;;;;5072077;28;19920;-72
2021/09/08 10:30:51;;;;;;;;;;;28.00;98.30;;;;;;5074789;28;20011;-72
2021/09/08 10:33:16;;;;;;;;;;;28.60;97.90;;;;;;5073015;28;19908;-72
2021/09/08 10:35:42;;;;;;;;;;;29.30;96.60;;;;;;5074501;28;20186;-72
2021/09/08 10:38:16;;;;;;;;;;;29.30;96.70;;;;;;5073692;28;19912;-71
2021/09/08 10:40:43;;;;;;;;;;;29.00;98.10;;;;;;5073153;28;19955;-72
2021/09/08 10:43:09;;;;;;;;;;;29.30;96.90;;;;;;5073792;28;20146;-72
2021/09/08 10:45:35;;;;;;;;;;;29.50;95.80;;;;;;5071847;28;20208;-72
2021/09/08 10:48:02;;;;;;;;;;;29.30;96.70;;;;;;5074451;28;19954;-72
2021/09/08 10:50:33;;;;;;;;;;;29.40;95.90;;;;;;5072238;28;20035;-72
2021/09/08 10:53:01;;;;;;;;;;;29.30;96.30;;;;;;5074240;28;19943;-72
2021/09/08 10:55:26;;;;;;;;;;;30.00;96.20;;;;;;5072123;28;20312;-72
2021/09/08 10:57:53;;;;;;;;;;;30.30;95.70;;;;;;5072079;28;19919;-74
2021/09/08 11:00:25;;;;;;;;;;;30.00;95.30;;;;;;5072451;28;19928;-72
2021/09/08 11:02:50;;;;;;;;;;;29.40;95.30;;;;;;5073400;28;19920;-72
2021/09/08 11:05:16;;;;;;;;;;;29.40;96.10;;;;;;5072662;28;19920;-73
2021/09/08 11:07:42;;;;;;;;;;;29.60;96.00;;;;;;5073594;28;19935;-72
2021/09/08 11:10:09;;;;;;;;;;;29.20;95.90;;;;;;5071868;28;19916;-72
2021/09/08 11:12:45;;;;;;;;;;;29.10;97.00;;;;;;5072637;28;19923;-72
2021/09/08 11:15:11;;;;;;;;;;;29.40;96.60;;;;;;5073161;28;20130;-72
2021/09/08 11:17:37;;;;;;;;;;;29.80;96.40;;;;;;5071511;28;19915;-71
2021/09/08 11:20:04;;;;;;;;;;;29.60;96.20;;;;;;5073089;28;19913;-72
2021/09/08 11:22:30;;;;;;;;;;;29.60;96.10;;;;;;5073960;28;19995;-71
2021/09/08 11:25:05;;;;;;;;;;;29.50;96.80;;;;;;5072666;28;20010;-72
2021/09/08 11:27:31;;;;;;;;;;;29.20;97.20;;;;;;5071936;28;20002;-71
2021/09/08 11:30:03;;;;;;;;;;;28.80;97.30;;;;;;5073166;28;19935;-72
2021/09/08 11:32:47;;;;;;;;;;;28.60;98.00;;;;;;5072793;28;19912;-71
2021/09/08 11:35:13;;;;;;;;;;;28.40;98.00;;;;;;5072440;28;19915;-71
2021/09/08 11:37:42;;;;;;;;;;;27.80;98.70;;;;;;5071731;28;20199;-71
2021/09/08 11:40:08;;;;;;;;;;;28.00;99.30;;;;;;5072218;28;19908;-71
2021/09/08 11:42:43;;;;;;;;;;;28.60;99.50;;;;;;5071666;28;20237;-71
2021/09/08 11:45:09;;;;;;;;;;;29.00;98.80;;;;;;5066399;28;19920;-72
2021/09/08 11:47:34;;;;;;;;;;;29.30;98.40;;;;;;5071566;28;19917;-71
2021/09/08 11:50:01;;;;;;;;;;;29.40;98.20;;;;;;5072895;28;20204;-71
2021/09/08 11:52:26;;;;;;;;;;;29.20;98.20;;;;;;5071706;28;20250;-71
2021/09/08 11:54:52;;;;;;;;;;;28.80;98.60;;;;;;5072553;28;19994;-71
2021/09/08 11:57:24;;;;;;;;;;;29.00;98.60;;;;;;5071130;28;19912;-71
2021/09/08 11:59:51;;;;;;;;;;;28.80;98.70;;;;;;5072863;28;19908;-71
2021/09/08 12:02:17;;;;;;;;;;;28.60;99.10;;;;;;5072097;28;19912;-70
2021/09/08 12:04:42;;;;;;;;;;;28.00;99.40;;;;;;5072089;28;19919;-70
2021/09/08 12:07:09;;;;;;;;;;;27.90;99.90;;;;;;5072147;28;19979;-71
2021/09/08 12:09:38;;;;;;;;;;;27.90;99.90;;;;;;5073038;28;20446;-71
2021/09/08 12:12:10;;;;;;;;;;;27.90;99.80;;;;;;5070237;28;19916;-71
2021/09/08 12:14:37;;;;;;;;;;;28.40;99.90;;;;;;5072090;28;19913;-71
2021/09/08 12:17:12;;;;;;;;;;;28.50;99.70;;;;;;5071062;28;20367;-71
2021/09/08 12:19:40;;;;;;;;;;;28.70;99.40;;;;;;5072190;28;19912;-71
2021/09/08 12:22:13;;;;;;;;;;;28.70;99.90;;;;;;5068280;28;19962;-72
2021/09/08 12:24:42;;;;;;;;;;;28.60;99.00;;;;;;5068940;28;19920;-72
2021/09/08 12:27:27;;;;;;;;;;;28.70;99.50;;;;;;5071047;28;19915;-71
2021/09/08 12:29:54;;;;;;;;;;;29.00;99.20;;;;;;5069449;28;20005;-72
2021/09/08 12:32:19;;;;;;;;;;;29.30;98.80;;;;;;5069142;28;20134;-72
2021/09/08 12:34:48;;;;;;;;;;;29.70;98.80;;;;;;5072859;28;20118;-71
2021/09/08 12:37:14;;;;;;;;;;;30.20;98.20;;;;;;5071868;28;19908;-72
2021/09/08 12:39:47;;;;;;;;;;;30.60;97.00;;;;;;5069416;28;19919;-71
2021/09/08 12:42:17;;;;;;;;;;;30.60;96.00;;;;;;5070551;28;19920;-72
2021/09/08 12:44:43;;;;;;;;;;;30.70;95.10;;;;;;5072264;28;19920;-71
2021/09/08 12:47:09;;;;;;;;;;;30.80;93.60;;;;;;5072373;28;19957;-71
2021/09/08 12:49:35;;;;;;;;;;;30.60;93.60;;;;;;5071565;28;19909;-71
2021/09/08 12:52:03;;;;;;;;;;;30.50;92.60;;;;;;5071084;28;20195;-71
2021/09/08 12:54:29;;;;;;;;;;;30.30;93.10;;;;;;5074105;28;20285;-72